sensor_id;sensor_type;location;lat;lon;timestamp;P1;durP1;ratioP1;P2;durP2;ratioP2
71320;SDS011;59118;54.322;18.576;2022-12-08T00:02:01;3.97;;;1.20;;
71320;SDS011;59118;54.322;18.576;2022-12-08T00:04:28;5.35;;;1.42;;
71320;SDS011;59118;54.322;18.576;2022-12-08T00:06:54;2.15;;;1.20;;
71320;SDS011;59118;54.322;18.576;2022-12-08T00:09:40;4.05;;;1.42;;
71320;SDS011;59118;54.322;18.576;2022-12-08T00:12:08;3.30;;;1.40;;
71320;SDS011;59118;54.322;18.576;2022-12-08T00:14:39;1.87;;;0.90;;
71320;SDS011;59118;54.322;18.576;2022-12-08T00:17:07;4.25;;;1.20;;
71320;SDS011;59118;54.322;18.576;2022-12-08T00:19:35;2.13;;;1.10;;
71320;SDS011;59118;54.322;18.576;2022-12-08T00:22:02;2.22;;;1.05;;
71320;SDS011;59118;54.322;18.576;2022-12-08T00:24:30;5.20;;;1.70;;
71320;SDS011;59118;54.322;18.576;2022-12-08T00:26:57;2.97;;;1.30;;
71320;SDS011;59118;54.322;18.576;2022-12-08T00:29:24;4.82;;;1.30;;
71320;SDS011;59118;54.322;18.576;2022-12-08T00:31:50;2.97;;;1.30;;
71320;SDS011;59118;54.322;18.576;2022-12-08T00:34:17;2.95;;;1.30;;
71320;SDS011;59118;54.322;18.576;2022-12-08T00:36:44;4.55;;;1.27;;
71320;SDS011;59118;54.322;18.576;2022-12-08T00:39:11;3.30;;;1.20;;
71320;SDS011;59118;54.322;18.576;2022-12-08T00:41:40;2.28;;;0.95;;
71320;SDS011;59118;54.322;18.576;2022-12-08T00:44:26;3.15;;;1.02;;
71320;SDS011;59118;54.322;18.576;2022-12-08T00:46:52;2.72;;;1.10;;
71320;SDS011;59118;54.322;18.576;2022-12-08T00:49:19;2.13;;;1.05;;
71320;SDS011;59118;54.322;18.576;2022-12-08T00:51:45;2.87;;;1.27;;
71320;SDS011;59118;54.322;18.576;2022-12-08T00:54:12;4.00;;;1.55;;
71320;SDS011;59118;54.322;18.576;2022-12-08T00:56:39;6.05;;;1.30;;
71320;SDS011;59118;54.322;18.576;2022-12-08T00:59:05;5.22;;;1.50;;
71320;SDS011;59118;54.322;18.576;2022-12-08T01:01:34;2.67;;;1.20;;
71320;SDS011;59118;54.322;18.576;2022-12-08T01:04:04;2.23;;;1.13;;
71320;SDS011;59118;54.322;18.576;2022-12-08T01:06:33;2.58;;;1.20;;
71320;SDS011;59118;54.322;18.576;2022-12-08T01:09:01;2.50;;;1.05;;
71320;SDS011;59118;54.322;18.576;2022-12-08T01:11:28;5.72;;;1.40;;
71320;SDS011;59118;54.322;18.576;2022-12-08T01:13:54;4.55;;;1.40;;
71320;SDS011;59118;54.322;18.576;2022-12-08T01:16:21;2.70;;;1.30;;
71320;SDS011;59118;54.322;18.576;2022-12-08T01:18:52;3.33;;;1.17;;
71320;SDS011;59118;54.322;18.576;2022-12-08T01:21:19;2.83;;;1.20;;
71320;SDS011;59118;54.322;18.576;2022-12-08T01:23:47;3.80;;;1.52;;
71320;SDS011;59118;54.322;18.576;2022-12-08T01:26:14;3.75;;;1.35;;
71320;SDS011;59118;54.322;18.576;2022-12-08T01:28:42;3.63;;;1.10;;
71320;SDS011;59118;54.322;18.576;2022-12-08T01:31:16;3.28;;;1.30;;
71320;SDS011;59118;54.322;18.576;2022-12-08T01:33:43;2.83;;;1.33;;
71320;SDS011;59118;54.322;18.576;2022-12-08T01:36:17;1.67;;;1.08;;
71320;SDS011;59118;54.322;18.576;2022-12-08T01:38:46;4.40;;;1.20;;
71320;SDS011;59118;54.322;18.576;2022-12-08T01:41:13;5.03;;;1.20;;
71320;SDS011;59118;54.322;18.576;2022-12-08T01:43:45;2.90;;;0.90;;
71320;SDS011;59118;54.322;18.576;2022-12-08T01:46:14;4.15;;;1.35;;
71320;SDS011;59118;54.322;18.576;2022-12-08T01:48:41;4.53;;;1.40;;
71320;SDS011;59118;54.322;18.576;2022-12-08T01:51:07;2.63;;;1.15;;
71320;SDS011;59118;54.322;18.576;2022-12-08T01:53:34;2.03;;;1.03;;
71320;SDS011;59118;54.322;18.576;2022-12-08T01:56:02;3.50;;;1.90;;
71320;SDS011;59118;54.322;18.576;2022-12-08T01:58:36;3.72;;;1.33;;
71320;SDS011;59118;54.322;18.576;2022-12-08T02:01:06;2.53;;;1.38;;
71320;SDS011;59118;54.322;18.576;2022-12-08T02:03:41;3.80;;;1.30;;
71320;SDS011;59118;54.322;18.576;2022-12-08T02:06:10;2.27;;;1.00;;
71320;SDS011;59118;54.322;18.576;2022-12-08T02:08:38;2.63;;;1.30;;
71320;SDS011;59118;54.322;18.576;2022-12-08T02:11:09;2.90;;;1.00;;
71320;SDS011;59118;54.322;18.576;2022-12-08T02:13:36;2.20;;;0.90;;
71320;SDS011;59118;54.322;18.576;2022-12-08T02:16:11;2.75;;;1.10;;
71320;SDS011;59118;54.322;18.576;2022-12-08T02:22:03;3.35;;;0.93;;
71320;SDS011;59118;54.322;18.576;2022-12-08T02:35:48;1.75;;;0.95;;
71320;SDS011;59118;54.322;18.576;2022-12-08T02:43:43;3.08;;;1.08;;
71320;SDS011;59118;54.322;18.576;2022-12-08T02:46:17;3.73;;;1.37;;
71320;SDS011;59118;54.322;18.576;2022-12-08T02:48:48;2.13;;;1.17;;
71320;SDS011;59118;54.322;18.576;2022-12-08T02:51:16;1.75;;;0.93;;
71320;SDS011;59118;54.322;18.576;2022-12-08T02:53:42;2.85;;;1.10;;
71320;SDS011;59118;54.322;18.576;2022-12-08T02:56:20;3.08;;;0.98;;
71320;SDS011;59118;54.322;18.576;2022-12-08T03:01:43;3.60;;;1.30;;
71320;SDS011;59118;54.322;18.576;2022-12-08T03:07:02;1.83;;;0.90;;
71320;SDS011;59118;54.322;18.576;2022-12-08T03:09:53;3.47;;;1.50;;
71320;SDS011;59118;54.322;18.576;2022-12-08T03:15:10;1.77;;;0.90;;
71320;SDS011;59118;54.322;18.576;2022-12-08T03:17:40;2.05;;;0.85;;
71320;SDS011;59118;54.322;18.576;2022-12-08T03:20:10;3.25;;;1.10;;
71320;SDS011;59118;54.322;18.576;2022-12-08T03:22:38;2.72;;;1.02;;
71320;SDS011;59118;54.322;18.576;2022-12-08T03:25:06;3.07;;;1.03;;
71320;SDS011;59118;54.322;18.576;2022-12-08T03:27:33;2.50;;;1.00;;
71320;SDS011;59118;54.322;18.576;2022-12-08T03:30:00;2.15;;;0.80;;
71320;SDS011;59118;54.322;18.576;2022-12-08T03:35:25;2.33;;;0.65;;
71320;SDS011;59118;54.322;18.576;2022-12-08T03:38:06;1.80;;;0.77;;
71320;SDS011;59118;54.322;18.576;2022-12-08T03:40:35;1.73;;;0.70;;
71320;SDS011;59118;54.322;18.576;2022-12-08T03:43:03;1.95;;;0.70;;
71320;SDS011;59118;54.322;18.576;2022-12-08T03:45:29;2.20;;;0.80;;
71320;SDS011;59118;54.322;18.576;2022-12-08T03:47:56;1.52;;;0.60;;
71320;SDS011;59118;54.322;18.576;2022-12-08T03:50:22;1.87;;;0.60;;
71320;SDS011;59118;54.322;18.576;2022-12-08T03:52:49;1.70;;;0.93;;
71320;SDS011;59118;54.322;18.576;2022-12-08T03:55:15;1.50;;;0.65;;
71320;SDS011;59118;54.322;18.576;2022-12-08T03:57:42;1.30;;;0.70;;
71320;SDS011;59118;54.322;18.576;2022-12-08T04:00:10;1.42;;;0.60;;
71320;SDS011;59118;54.322;18.576;2022-12-08T04:02:39;3.03;;;0.60;;
71320;SDS011;59118;54.322;18.576;2022-12-08T04:05:06;1.73;;;0.70;;
71320;SDS011;59118;54.322;18.576;2022-12-08T04:07:33;2.25;;;0.80;;
71320;SDS011;59118;54.322;18.576;2022-12-08T04:09:59;1.98;;;0.82;;
71320;SDS011;59118;54.322;18.576;2022-12-08T04:12:26;2.53;;;0.73;;
71320;SDS011;59118;54.322;18.576;2022-12-08T04:14:52;1.80;;;0.60;;
71320;SDS011;59118;54.322;18.576;2022-12-08T04:17:18;1.35;;;0.70;;
71320;SDS011;59118;54.322;18.576;2022-12-08T04:19:45;2.45;;;0.98;;
71320;SDS011;59118;54.322;18.576;2022-12-08T04:22:13;2.38;;;0.82;;
71320;SDS011;59118;54.322;18.576;2022-12-08T04:24:40;2.30;;;0.80;;
71320;SDS011;59118;54.322;18.576;2022-12-08T04:27:06;1.33;;;0.70;;
71320;SDS011;59118;54.322;18.576;2022-12-08T04:29:32;2.80;;;1.00;;
71320;SDS011;59118;54.322;18.576;2022-12-08T04:31:59;2.70;;;0.80;;
71320;SDS011;59118;54.322;18.576;2022-12-08T04:34:25;1.85;;;0.80;;
71320;SDS011;59118;54.322;18.576;2022-12-08T04:36:52;1.25;;;0.70;;
71320;SDS011;59118;54.322;18.576;2022-12-08T04:39:18;2.30;;;0.83;;
71320;SDS011;59118;54.322;18.576;2022-12-08T04:41:45;1.33;;;0.68;;
71320;SDS011;59118;54.322;18.576;2022-12-08T04:44:11;1.70;;;0.75;;
71320;SDS011;59118;54.322;18.576;2022-12-08T04:46:37;1.80;;;0.80;;
71320;SDS011;59118;54.322;18.576;2022-12-08T04:49:08;1.25;;;0.68;;
71320;SDS011;59118;54.322;18.576;2022-12-08T04:51:35;1.20;;;0.63;;
71320;SDS011;59118;54.322;18.576;2022-12-08T04:54:02;1.85;;;0.80;;
71320;SDS011;59118;54.322;18.576;2022-12-08T04:56:28;3.08;;;0.98;;
71320;SDS011;59118;54.322;18.576;2022-12-08T04:58:55;1.98;;;0.90;;
71320;SDS011;59118;54.322;18.576;2022-12-08T05:01:22;3.13;;;0.95;;
71320;SDS011;59118;54.322;18.576;2022-12-08T05:03:48;2.10;;;0.90;;
71320;SDS011;59118;54.322;18.576;2022-12-08T05:06:15;4.10;;;0.93;;
71320;SDS011;59118;54.322;18.576;2022-12-08T05:08:42;3.00;;;1.10;;
71320;SDS011;59118;54.322;18.576;2022-12-08T05:11:09;2.13;;;1.00;;
71320;SDS011;59118;54.322;18.576;2022-12-08T05:13:37;1.10;;;0.60;;
71320;SDS011;59118;54.322;18.576;2022-12-08T05:16:04;1.80;;;0.80;;
71320;SDS011;59118;54.322;18.576;2022-12-08T05:18:35;2.15;;;0.90;;
71320;SDS011;59118;54.322;18.576;2022-12-08T05:21:02;1.75;;;1.00;;
71320;SDS011;59118;54.322;18.576;2022-12-08T05:23:30;2.67;;;1.17;;
71320;SDS011;59118;54.322;18.576;2022-12-08T05:25:56;2.33;;;0.88;;
71320;SDS011;59118;54.322;18.576;2022-12-08T05:28:23;3.17;;;1.00;;
71320;SDS011;59118;54.322;18.576;2022-12-08T05:31:08;2.45;;;0.95;;
71320;SDS011;59118;54.322;18.576;2022-12-08T05:33:35;2.45;;;1.02;;
71320;SDS011;59118;54.322;18.576;2022-12-08T05:36:02;2.08;;;0.95;;
71320;SDS011;59118;54.322;18.576;2022-12-08T05:38:28;4.00;;;0.93;;
71320;SDS011;59118;54.322;18.576;2022-12-08T05:40:55;2.60;;;1.10;;
71320;SDS011;59118;54.322;18.576;2022-12-08T05:43:21;2.28;;;0.98;;
71320;SDS011;59118;54.322;18.576;2022-12-08T05:45:48;2.65;;;1.10;;
71320;SDS011;59118;54.322;18.576;2022-12-08T05:48:14;2.20;;;0.80;;
71320;SDS011;59118;54.322;18.576;2022-12-08T05:50:47;3.50;;;1.10;;
71320;SDS011;59118;54.322;18.576;2022-12-08T05:53:15;5.20;;;0.87;;
71320;SDS011;59118;54.322;18.576;2022-12-08T05:55:42;2.47;;;0.95;;
71320;SDS011;59118;54.322;18.576;2022-12-08T05:58:10;1.55;;;0.75;;
71320;SDS011;59118;54.322;18.576;2022-12-08T06:00:38;3.40;;;1.17;;
71320;SDS011;59118;54.322;18.576;2022-12-08T06:03:05;3.30;;;1.00;;
71320;SDS011;59118;54.322;18.576;2022-12-08T06:05:33;2.60;;;0.90;;
71320;SDS011;59118;54.322;18.576;2022-12-08T06:07:59;2.38;;;0.98;;
71320;SDS011;59118;54.322;18.576;2022-12-08T06:10:26;2.45;;;0.90;;
71320;SDS011;59118;54.322;18.576;2022-12-08T06:12:53;4.63;;;1.00;;
71320;SDS011;59118;54.322;18.576;2022-12-08T06:15:19;1.88;;;0.90;;
71320;SDS011;59118;54.322;18.576;2022-12-08T06:17:45;3.47;;;0.83;;
71320;SDS011;59118;54.322;18.576;2022-12-08T06:20:12;4.35;;;0.90;;
71320;SDS011;59118;54.322;18.576;2022-12-08T06:22:38;4.60;;;1.08;;
71320;SDS011;59118;54.322;18.576;2022-12-08T06:25:05;2.28;;;0.68;;
71320;SDS011;59118;54.322;18.576;2022-12-08T06:27:36;3.50;;;1.23;;
71320;SDS011;59118;54.322;18.576;2022-12-08T06:30:03;1.80;;;0.70;;
71320;SDS011;59118;54.322;18.576;2022-12-08T06:32:30;4.13;;;1.52;;
71320;SDS011;59118;54.322;18.576;2022-12-08T06:34:56;5.65;;;1.83;;
71320;SDS011;59118;54.322;18.576;2022-12-08T06:37:23;5.93;;;1.80;;
71320;SDS011;59118;54.322;18.576;2022-12-08T06:39:49;3.90;;;1.23;;
71320;SDS011;59118;54.322;18.576;2022-12-08T06:42:16;5.80;;;1.33;;
71320;SDS011;59118;54.322;18.576;2022-12-08T06:45:01;4.03;;;1.10;;
71320;SDS011;59118;54.322;18.576;2022-12-08T06:47:28;5.03;;;1.50;;
71320;SDS011;59118;54.322;18.576;2022-12-08T06:49:54;6.40;;;2.45;;
71320;SDS011;59118;54.322;18.576;2022-12-08T06:52:21;9.10;;;2.63;;
71320;SDS011;59118;54.322;18.576;2022-12-08T06:54:47;7.23;;;1.60;;
71320;SDS011;59118;54.322;18.576;2022-12-08T06:57:14;4.10;;;1.48;;
71320;SDS011;59118;54.322;18.576;2022-12-08T06:59:40;6.65;;;2.00;;
71320;SDS011;59118;54.322;18.576;2022-12-08T07:02:08;4.10;;;1.50;;
71320;SDS011;59118;54.322;18.576;2022-12-08T07:04:34;3.00;;;0.98;;
71320;SDS011;59118;54.322;18.576;2022-12-08T07:07:01;4.73;;;1.23;;
71320;SDS011;59118;54.322;18.576;2022-12-08T07:09:28;2.70;;;1.10;;
71320;SDS011;59118;54.322;18.576;2022-12-08T07:11:54;3.55;;;1.40;;
71320;SDS011;59118;54.322;18.576;2022-12-08T07:14:20;3.50;;;1.40;;
71320;SDS011;59118;54.322;18.576;2022-12-08T07:16:50;3.15;;;1.30;;
71320;SDS011;59118;54.322;18.576;2022-12-08T07:19:17;3.33;;;1.20;;
71320;SDS011;59118;54.322;18.576;2022-12-08T07:21:44;4.82;;;1.10;;
71320;SDS011;59118;54.322;18.576;2022-12-08T07:24:10;3.08;;;0.98;;
71320;SDS011;59118;54.322;18.576;2022-12-08T07:26:37;3.58;;;0.93;;
71320;SDS011;59118;54.322;18.576;2022-12-08T07:29:04;4.53;;;0.77;;
71320;SDS011;59118;54.322;18.576;2022-12-08T07:31:31;2.47;;;0.90;;
71320;SDS011;59118;54.322;18.576;2022-12-08T07:33:58;2.40;;;0.80;;
71320;SDS011;59118;54.322;18.576;2022-12-08T07:36:24;2.33;;;0.88;;
71320;SDS011;59118;54.322;18.576;2022-12-08T07:38:51;5.53;;;0.80;;
71320;SDS011;59118;54.322;18.576;2022-12-08T07:41:19;4.43;;;0.90;;
71320;SDS011;59118;54.322;18.576;2022-12-08T07:43:49;3.47;;;0.83;;
71320;SDS011;59118;54.322;18.576;2022-12-08T07:46:17;3.40;;;0.80;;
71320;SDS011;59118;54.322;18.576;2022-12-08T07:48:45;3.20;;;0.93;;
71320;SDS011;59118;54.322;18.576;2022-12-08T07:51:13;2.85;;;0.80;;
71320;SDS011;59118;54.322;18.576;2022-12-08T07:53:43;4.78;;;1.10;;
71320;SDS011;59118;54.322;18.576;2022-12-08T07:56:18;3.97;;;1.10;;
71320;SDS011;59118;54.322;18.576;2022-12-08T07:58:44;3.45;;;1.00;;
71320;SDS011;59118;54.322;18.576;2022-12-08T08:01:23;4.60;;;1.60;;
71320;SDS011;59118;54.322;18.576;2022-12-08T08:03:51;5.10;;;1.30;;
71320;SDS011;59118;54.322;18.576;2022-12-08T08:06:18;5.65;;;1.88;;
71320;SDS011;59118;54.322;18.576;2022-12-08T08:08:44;5.30;;;2.03;;
71320;SDS011;59118;54.322;18.576;2022-12-08T08:11:11;6.03;;;1.83;;
71320;SDS011;59118;54.322;18.576;2022-12-08T08:13:45;6.18;;;2.00;;
71320;SDS011;59118;54.322;18.576;2022-12-08T08:16:12;6.68;;;1.80;;
71320;SDS011;59118;54.322;18.576;2022-12-08T08:18:38;6.25;;;1.85;;
71320;SDS011;59118;54.322;18.576;2022-12-08T08:21:05;3.77;;;1.47;;
71320;SDS011;59118;54.322;18.576;2022-12-08T08:23:52;7.07;;;1.90;;
71320;SDS011;59118;54.322;18.576;2022-12-08T08:26:18;8.88;;;2.05;;
71320;SDS011;59118;54.322;18.576;2022-12-08T08:28:44;6.28;;;1.50;;
71320;SDS011;59118;54.322;18.576;2022-12-08T08:31:11;3.15;;;1.30;;
71320;SDS011;59118;54.322;18.576;2022-12-08T08:33:37;5.53;;;1.93;;
71320;SDS011;59118;54.322;18.576;2022-12-08T08:36:07;5.03;;;1.77;;
71320;SDS011;59118;54.322;18.576;2022-12-08T08:38:35;4.75;;;1.75;;
71320;SDS011;59118;54.322;18.576;2022-12-08T08:41:08;3.65;;;1.58;;
71320;SDS011;59118;54.322;18.576;2022-12-08T08:43:36;4.38;;;1.90;;
71320;SDS011;59118;54.322;18.576;2022-12-08T08:46:04;5.13;;;1.87;;
71320;SDS011;59118;54.322;18.576;2022-12-08T08:48:31;6.72;;;2.20;;
71320;SDS011;59118;54.322;18.576;2022-12-08T08:51:05;5.72;;;2.40;;
71320;SDS011;59118;54.322;18.576;2022-12-08T08:53:32;4.97;;;1.77;;
71320;SDS011;59118;54.322;18.576;2022-12-08T08:55:59;6.85;;;2.22;;
71320;SDS011;59118;54.322;18.576;2022-12-08T08:58:28;4.67;;;1.80;;
71320;SDS011;59118;54.322;18.576;2022-12-08T09:00:54;7.10;;;1.80;;
71320;SDS011;59118;54.322;18.576;2022-12-08T09:03:21;5.57;;;1.95;;
71320;SDS011;59118;54.322;18.576;2022-12-08T09:05:48;8.35;;;2.67;;
71320;SDS011;59118;54.322;18.576;2022-12-08T09:08:15;6.53;;;1.98;;
71320;SDS011;59118;54.322;18.576;2022-12-08T09:10:41;6.13;;;2.20;;
71320;SDS011;59118;54.322;18.576;2022-12-08T09:13:08;8.52;;;2.78;;
71320;SDS011;59118;54.322;18.576;2022-12-08T09:15:34;5.78;;;2.47;;
71320;SDS011;59118;54.322;18.576;2022-12-08T09:18:02;8.80;;;2.70;;
71320;SDS011;59118;54.322;18.576;2022-12-08T09:20:32;10.13;;;2.78;;
71320;SDS011;59118;54.322;18.576;2022-12-08T09:22:59;9.60;;;2.90;;
71320;SDS011;59118;54.322;18.576;2022-12-08T09:25:28;7.07;;;2.50;;
71320;SDS011;59118;54.322;18.576;2022-12-08T09:27:54;6.82;;;1.98;;
71320;SDS011;59118;54.322;18.576;2022-12-08T09:30:21;9.80;;;3.08;;
71320;SDS011;59118;54.322;18.576;2022-12-08T09:32:48;7.75;;;3.00;;
71320;SDS011;59118;54.322;18.576;2022-12-08T09:35:14;7.67;;;2.90;;
71320;SDS011;59118;54.322;18.576;2022-12-08T09:37:40;7.38;;;2.85;;
71320;SDS011;59118;54.322;18.576;2022-12-08T09:40:07;9.07;;;3.13;;
71320;SDS011;59118;54.322;18.576;2022-12-08T09:42:48;10.30;;;3.55;;
71320;SDS011;59118;54.322;18.576;2022-12-08T09:45:17;8.65;;;3.13;;
71320;SDS011;59118;54.322;18.576;2022-12-08T09:47:46;4.63;;;2.20;;
71320;SDS011;59118;54.322;18.576;2022-12-08T09:50:23;9.25;;;2.58;;
71320;SDS011;59118;54.322;18.576;2022-12-08T09:53:18;8.75;;;2.80;;
71320;SDS011;59118;54.322;18.576;2022-12-08T09:58:43;6.20;;;1.75;;
71320;SDS011;59118;54.322;18.576;2022-12-08T10:01:14;6.33;;;1.87;;
71320;SDS011;59118;54.322;18.576;2022-12-08T10:03:41;4.38;;;2.05;;
71320;SDS011;59118;54.322;18.576;2022-12-08T10:11:28;12.45;;;3.70;;
71320;SDS011;59118;54.322;18.576;2022-12-08T10:14:02;7.10;;;2.37;;
71320;SDS011;59118;54.322;18.576;2022-12-08T10:16:40;8.50;;;3.20;;
71320;SDS011;59118;54.322;18.576;2022-12-08T10:19:12;3.15;;;1.58;;
71320;SDS011;59118;54.322;18.576;2022-12-08T10:21:42;7.88;;;3.40;;
71320;SDS011;59118;54.322;18.576;2022-12-08T10:24:25;7.93;;;2.28;;
71320;SDS011;59118;54.322;18.576;2022-12-08T10:26:57;8.60;;;3.50;;
71320;SDS011;59118;54.322;18.576;2022-12-08T10:29:24;7.93;;;3.17;;
71320;SDS011;59118;54.322;18.576;2022-12-08T10:31:50;8.38;;;3.22;;
71320;SDS011;59118;54.322;18.576;2022-12-08T10:34:18;12.60;;;4.93;;
71320;SDS011;59118;54.322;18.576;2022-12-08T10:36:53;8.15;;;2.83;;
71320;SDS011;59118;54.322;18.576;2022-12-08T10:39:31;10.03;;;3.07;;
71320;SDS011;59118;54.322;18.576;2022-12-08T10:42:16;12.40;;;4.20;;
71320;SDS011;59118;54.322;18.576;2022-12-08T10:44:51;6.10;;;2.15;;
71320;SDS011;59118;54.322;18.576;2022-12-08T10:47:27;13.77;;;4.25;;
71320;SDS011;59118;54.322;18.576;2022-12-08T10:52:44;11.10;;;4.07;;
71320;SDS011;59118;54.322;18.576;2022-12-08T10:55:12;8.85;;;3.45;;
71320;SDS011;59118;54.322;18.576;2022-12-08T10:57:44;6.25;;;2.88;;
71320;SDS011;59118;54.322;18.576;2022-12-08T11:00:12;12.48;;;4.00;;
71320;SDS011;59118;54.322;18.576;2022-12-08T11:02:50;13.30;;;3.00;;
71320;SDS011;59118;54.322;18.576;2022-12-08T11:05:26;11.13;;;4.10;;
71320;SDS011;59118;54.322;18.576;2022-12-08T11:07:59;9.27;;;3.20;;
71320;SDS011;59118;54.322;18.576;2022-12-08T11:10:33;11.05;;;4.35;;
71320;SDS011;59118;54.322;18.576;2022-12-08T11:13:03;14.05;;;3.40;;
71320;SDS011;59118;54.322;18.576;2022-12-08T11:15:37;9.93;;;3.45;;
71320;SDS011;59118;54.322;18.576;2022-12-08T11:18:08;12.93;;;3.60;;
71320;SDS011;59118;54.322;18.576;2022-12-08T11:20:46;6.38;;;2.28;;
71320;SDS011;59118;54.322;18.576;2022-12-08T11:23:19;11.07;;;4.00;;
71320;SDS011;59118;54.322;18.576;2022-12-08T11:25:47;11.13;;;3.78;;
71320;SDS011;59118;54.322;18.576;2022-12-08T11:28:15;14.77;;;5.13;;
71320;SDS011;59118;54.322;18.576;2022-12-08T11:30:46;12.47;;;4.27;;
71320;SDS011;59118;54.322;18.576;2022-12-08T11:33:17;6.30;;;2.78;;
71320;SDS011;59118;54.322;18.576;2022-12-08T11:35:48;8.65;;;3.15;;
71320;SDS011;59118;54.322;18.576;2022-12-08T11:38:38;9.05;;;3.45;;
71320;SDS011;59118;54.322;18.576;2022-12-08T11:41:16;11.60;;;4.32;;
71320;SDS011;59118;54.322;18.576;2022-12-08T11:46:27;15.73;;;3.85;;
71320;SDS011;59118;54.322;18.576;2022-12-08T11:49:02;8.23;;;3.80;;
71320;SDS011;59118;54.322;18.576;2022-12-08T11:51:33;14.85;;;5.88;;
71320;SDS011;59118;54.322;18.576;2022-12-08T11:54:21;11.63;;;3.97;;
71320;SDS011;59118;54.322;18.576;2022-12-08T11:57:12;15.70;;;4.83;;
71320;SDS011;59118;54.322;18.576;2022-12-08T11:59:42;14.13;;;5.25;;
71320;SDS011;59118;54.322;18.576;2022-12-08T12:04:46;14.20;;;5.00;;
71320;SDS011;59118;54.322;18.576;2022-12-08T12:12:56;14.48;;;4.85;;
71320;SDS011;59118;54.322;18.576;2022-12-08T12:19:04;13.07;;;3.22;;
71320;SDS011;59118;54.322;18.576;2022-12-08T12:21:14;11.85;;;4.30;;
71320;SDS011;59118;54.322;18.576;2022-12-08T12:26:19;11.02;;;4.25;;
71320;SDS011;59118;54.322;18.576;2022-12-08T12:31:18;12.35;;;4.88;;
71320;SDS011;59118;54.322;18.576;2022-12-08T12:33:49;14.20;;;5.00;;
71320;SDS011;59118;54.322;18.576;2022-12-08T12:36:17;12.03;;;4.77;;
71320;SDS011;59118;54.322;18.576;2022-12-08T12:38:44;14.52;;;5.07;;
71320;SDS011;59118;54.322;18.576;2022-12-08T12:41:43;15.85;;;5.25;;
71320;SDS011;59118;54.322;18.576;2022-12-08T12:54:35;12.50;;;4.32;;
71320;SDS011;59118;54.322;18.576;2022-12-08T13:02:15;8.97;;;3.60;;
71320;SDS011;59118;54.322;18.576;2022-12-08T13:04:51;8.02;;;2.85;;
71320;SDS011;59118;54.322;18.576;2022-12-08T13:07:25;13.60;;;3.38;;
71320;SDS011;59118;54.322;18.576;2022-12-08T13:09:58;8.35;;;3.42;;
71320;SDS011;59118;54.322;18.576;2022-12-08T13:12:30;9.85;;;3.83;;
71320;SDS011;59118;54.322;18.576;2022-12-08T13:14:59;21.03;;;4.07;;
71320;SDS011;59118;54.322;18.576;2022-12-08T13:17:32;19.95;;;4.75;;
71320;SDS011;59118;54.322;18.576;2022-12-08T13:20:02;9.13;;;3.83;;
71320;SDS011;59118;54.322;18.576;2022-12-08T13:33:16;13.95;;;5.43;;
71320;SDS011;59118;54.322;18.576;2022-12-08T13:35:56;11.82;;;4.47;;
71320;SDS011;59118;54.322;18.576;2022-12-08T13:38:29;16.40;;;8.90;;
71320;SDS011;59118;54.322;18.576;2022-12-08T13:40:56;13.67;;;5.60;;
71320;SDS011;59118;54.322;18.576;2022-12-08T13:46:55;24.00;;;8.35;;
71320;SDS011;59118;54.322;18.576;2022-12-08T13:49:45;16.65;;;6.25;;
71320;SDS011;59118;54.322;18.576;2022-12-08T13:55:44;19.90;;;8.23;;
71320;SDS011;59118;54.322;18.576;2022-12-08T13:58:34;19.05;;;7.85;;
71320;SDS011;59118;54.322;18.576;2022-12-08T14:01:04;27.13;;;9.40;;
71320;SDS011;59118;54.322;18.576;2022-12-08T14:06:44;23.13;;;8.20;;
71320;SDS011;59118;54.322;18.576;2022-12-08T14:09:14;23.47;;;9.33;;
71320;SDS011;59118;54.322;18.576;2022-12-08T14:11:49;24.13;;;9.85;;
71320;SDS011;59118;54.322;18.576;2022-12-08T14:14:17;27.92;;;10.38;;
71320;SDS011;59118;54.322;18.576;2022-12-08T14:17:17;22.90;;;9.50;;
71320;SDS011;59118;54.322;18.576;2022-12-08T14:19:55;27.85;;;10.38;;
71320;SDS011;59118;54.322;18.576;2022-12-08T14:22:23;33.20;;;11.30;;
71320;SDS011;59118;54.322;18.576;2022-12-08T14:24:51;27.60;;;11.10;;
71320;SDS011;59118;54.322;18.576;2022-12-08T14:27:20;27.35;;;10.70;;
71320;SDS011;59118;54.322;18.576;2022-12-08T14:29:55;27.15;;;11.30;;
71320;SDS011;59118;54.322;18.576;2022-12-08T14:32:32;26.98;;;10.60;;
71320;SDS011;59118;54.322;18.576;2022-12-08T14:37:35;23.00;;;9.20;;
71320;SDS011;59118;54.322;18.576;2022-12-08T14:40:05;23.55;;;11.32;;
71320;SDS011;59118;54.322;18.576;2022-12-08T14:45:43;35.28;;;11.75;;
71320;SDS011;59118;54.322;18.576;2022-12-08T14:48:24;31.50;;;11.63;;
71320;SDS011;59118;54.322;18.576;2022-12-08T14:56:22;26.17;;;11.88;;
71320;SDS011;59118;54.322;18.576;2022-12-08T14:59:12;62.40;;;16.55;;
71320;SDS011;59118;54.322;18.576;2022-12-08T15:01:41;44.27;;;13.37;;
71320;SDS011;59118;54.322;18.576;2022-12-08T15:06:44;36.58;;;13.23;;
71320;SDS011;59118;54.322;18.576;2022-12-08T15:09:13;30.88;;;13.23;;
71320;SDS011;59118;54.322;18.576;2022-12-08T15:11:42;48.22;;;15.13;;
71320;SDS011;59118;54.322;18.576;2022-12-08T15:16:59;38.58;;;13.88;;
71320;SDS011;59118;54.322;18.576;2022-12-08T15:19:29;38.22;;;13.20;;
71320;SDS011;59118;54.322;18.576;2022-12-08T15:21:57;43.65;;;16.17;;
71320;SDS011;59118;54.322;18.576;2022-12-08T15:24:32;35.05;;;14.63;;
71320;SDS011;59118;54.322;18.576;2022-12-08T15:27:00;40.10;;;16.67;;
71320;SDS011;59118;54.322;18.576;2022-12-08T15:29:29;40.80;;;15.75;;
71320;SDS011;59118;54.322;18.576;2022-12-08T15:31:58;26.80;;;11.15;;
71320;SDS011;59118;54.322;18.576;2022-12-08T15:34:25;30.25;;;11.55;;
71320;SDS011;59118;54.322;18.576;2022-12-08T15:36:52;29.02;;;10.02;;
71320;SDS011;59118;54.322;18.576;2022-12-08T15:41:50;43.75;;;15.45;;
71320;SDS011;59118;54.322;18.576;2022-12-08T15:44:16;73.80;;;18.85;;
71320;SDS011;59118;54.322;18.576;2022-12-08T15:46:43;48.55;;;15.63;;
71320;SDS011;59118;54.322;18.576;2022-12-08T15:49:14;46.55;;;17.70;;
71320;SDS011;59118;54.322;18.576;2022-12-08T15:51:42;152.30;;;24.93;;
71320;SDS011;59118;54.322;18.576;2022-12-08T15:54:09;45.92;;;16.05;;
71320;SDS011;59118;54.322;18.576;2022-12-08T15:56:37;46.20;;;17.55;;
71320;SDS011;59118;54.322;18.576;2022-12-08T15:59:29;57.85;;;17.33;;
71320;SDS011;59118;54.322;18.576;2022-12-08T16:01:56;42.97;;;16.17;;
71320;SDS011;59118;54.322;18.576;2022-12-08T16:04:22;45.07;;;16.67;;
71320;SDS011;59118;54.322;18.576;2022-12-08T16:07:20;40.35;;;16.17;;
71320;SDS011;59118;54.322;18.576;2022-12-08T16:09:56;41.10;;;14.57;;
71320;SDS011;59118;54.322;18.576;2022-12-08T16:12:23;44.50;;;16.20;;
71320;SDS011;59118;54.322;18.576;2022-12-08T16:15:30;44.63;;;17.23;;
71320;SDS011;59118;54.322;18.576;2022-12-08T16:18:22;40.47;;;16.20;;
71320;SDS011;59118;54.322;18.576;2022-12-08T16:20:51;48.08;;;18.85;;
71320;SDS011;59118;54.322;18.576;2022-12-08T16:23:37;40.60;;;17.35;;
71320;SDS011;59118;54.322;18.576;2022-12-08T16:26:19;39.10;;;16.85;;
71320;SDS011;59118;54.322;18.576;2022-12-08T16:29:06;42.75;;;18.35;;
71320;SDS011;59118;54.322;18.576;2022-12-08T16:31:33;44.73;;;17.53;;
71320;SDS011;59118;54.322;18.576;2022-12-08T16:34:00;52.67;;;19.92;;
71320;SDS011;59118;54.322;18.576;2022-12-08T16:36:28;44.63;;;20.08;;
71320;SDS011;59118;54.322;18.576;2022-12-08T16:38:54;51.80;;;20.95;;
71320;SDS011;59118;54.322;18.576;2022-12-08T16:41:21;50.53;;;20.85;;
71320;SDS011;59118;54.322;18.576;2022-12-08T16:44:08;48.00;;;19.90;;